createdAt,value
2022-12-06T00:01:09.566Z,12.63
2022-12-06T00:03:37.667Z,12.80
2022-12-06T00:06:11.876Z,11.97
2022-12-06T00:08:39.518Z,12.10
2022-12-06T00:11:11.746Z,11.73
2022-12-06T00:13:39.307Z,12.50
2022-12-06T00:16:08.468Z,13.07
2022-12-06T00:18:39.859Z,12.73
2022-12-06T00:21:12.021Z,12.60
2022-12-06T00:23:40.747Z,13.00
2022-12-06T00:26:07.953Z,12.65
2022-12-06T00:28:35.830Z,13.30
2022-12-06T00:31:04.915Z,12.67
2022-12-06T00:33:32.065Z,14.40
2022-12-06T00:36:01.365Z,13.40
2022-12-06T00:38:29.345Z,14.03
2022-12-06T00:41:00.601Z,13.07
2022-12-06T00:43:27.742Z,13.63
2022-12-06T00:45:54.550Z,13.77
2022-12-06T00:48:21.320Z,13.27
2022-12-06T00:50:48.204Z,13.47
2022-12-06T00:53:15.023Z,12.63
2022-12-06T00:55:43.862Z,12.27
2022-12-06T00:58:11.631Z,12.80
2022-12-06T01:00:38.431Z,12.17
2022-12-06T01:03:05.517Z,12.77
2022-12-06T01:05:32.242Z,13.13
2022-12-06T01:07:58.907Z,12.77
2022-12-06T01:10:25.992Z,13.03
2022-12-06T01:12:52.620Z,13.43
2022-12-06T01:15:19.327Z,14.20
2022-12-06T01:17:45.964Z,14.20
2022-12-06T01:20:12.645Z,12.93
2022-12-06T01:22:39.287Z,13.40
2022-12-06T01:25:08.312Z,13.53
2022-12-06T01:27:35.027Z,12.43
2022-12-06T01:30:01.990Z,12.60
2022-12-06T01:32:30.237Z,13.30
2022-12-06T01:34:57.082Z,12.50
2022-12-06T01:37:23.968Z,12.63
2022-12-06T01:39:50.692Z,12.47
2022-12-06T01:42:17.376Z,12.53
2022-12-06T01:44:49.842Z,12.67
2022-12-06T01:47:48.623Z,12.13
2022-12-06T01:50:24.464Z,13.50
2022-12-06T01:53:06.545Z,12.37
2022-12-06T01:55:37.289Z,12.30
2022-12-06T01:58:20.096Z,12.43
2022-12-06T02:00:46.750Z,12.13
2022-12-06T02:03:19.881Z,12.63
2022-12-06T02:05:46.568Z,13.37
2022-12-06T02:08:14.743Z,12.83
2022-12-06T02:10:41.746Z,13.50
2022-12-06T02:13:08.752Z,12.73
2022-12-06T02:15:40.792Z,11.60
2022-12-06T02:18:15.683Z,12.33
2022-12-06T02:20:52.112Z,12.00
2022-12-06T02:24:01.718Z,11.77
2022-12-06T02:26:48.270Z,12.73
2022-12-06T02:29:40.649Z,12.20
2022-12-06T02:32:25.332Z,11.90
2022-12-06T02:35:03.197Z,12.03
2022-12-06T02:37:36.978Z,12.27
2022-12-06T02:40:12.072Z,11.90
2022-12-06T02:42:56.204Z,11.13
2022-12-06T02:45:29.633Z,11.77
2022-12-06T02:48:01.426Z,11.47
2022-12-06T02:50:39.638Z,11.97
2022-12-06T02:53:10.241Z,11.87
2022-12-06T02:55:37.599Z,10.83
2022-12-06T02:58:04.225Z,10.67
2022-12-06T03:00:40.186Z,11.07
2022-12-06T03:03:38.978Z,10.87
2022-12-06T03:06:18.497Z,10.43
2022-12-06T03:09:02.696Z,11.47
2022-12-06T03:11:51.697Z,11.07
2022-12-06T03:14:24.816Z,11.20
2022-12-06T03:17:06.432Z,11.43
2022-12-06T03:19:35.675Z,11.07
2022-12-06T03:22:27.734Z,10.40
2022-12-06T03:24:55.394Z,9.93
2022-12-06T03:27:23.012Z,9.77
2022-12-06T03:29:56.876Z,10.80
2022-12-06T03:32:28.128Z,10.40
2022-12-06T03:34:57.104Z,10.37
2022-12-06T03:37:27.124Z,10.63
2022-12-06T03:40:07.757Z,10.07
2022-12-06T03:42:35.174Z,10.37
2022-12-06T03:45:02.649Z,10.77
2022-12-06T03:47:40.287Z,10.20
2022-12-06T03:50:16.586Z,10.70
2022-12-06T03:52:43.339Z,9.50
2022-12-06T03:55:10.052Z,10.33
2022-12-06T03:57:36.807Z,10.27
2022-12-06T04:00:04.979Z,10.17
2022-12-06T04:02:31.602Z,10.57
2022-12-06T04:04:58.296Z,9.43
2022-12-06T04:07:24.905Z,10.50
2022-12-06T04:10:03.064Z,10.30
2022-12-06T04:12:50.542Z,11.80
2022-12-06T04:15:18.320Z,11.23
2022-12-06T04:18:03.479Z,10.23
2022-12-06T04:20:50.928Z,11.77
2022-12-06T04:23:18.475Z,10.23
2022-12-06T04:25:45.165Z,10.77
2022-12-06T04:28:30.619Z,9.87
2022-12-06T04:31:21.448Z,10.00
2022-12-06T04:34:07.241Z,10.07
2022-12-06T04:36:52.645Z,9.50
2022-12-06T04:39:21.102Z,10.03
2022-12-06T04:42:07.039Z,10.30
2022-12-06T04:44:33.799Z,9.70
2022-12-06T04:47:01.077Z,9.73
2022-12-06T04:49:27.958Z,10.17
2022-12-06T04:51:55.511Z,10.33
2022-12-06T04:54:23.290Z,9.30
2022-12-06T04:56:50.037Z,9.70
2022-12-06T04:59:16.793Z,9.90
2022-12-06T05:01:43.423Z,10.03
2022-12-06T05:04:10.118Z,10.20
2022-12-06T05:06:36.882Z,9.93
2022-12-06T05:09:04.186Z,9.77
2022-12-06T05:11:31.183Z,10.47
2022-12-06T05:13:58.863Z,10.20
2022-12-06T05:16:25.576Z,10.23
2022-12-06T05:18:52.282Z,10.70
2022-12-06T05:21:22.532Z,9.67
2022-12-06T05:23:49.722Z,10.27
2022-12-06T05:26:18.448Z,10.33
2022-12-06T05:28:46.275Z,10.57
2022-12-06T05:31:13.649Z,9.67
2022-12-06T05:33:40.319Z,10.10
2022-12-06T05:36:22.618Z,9.77
2022-12-06T05:38:51.814Z,9.50
2022-12-06T05:41:24.274Z,9.80
2022-12-06T05:43:51.129Z,9.13
2022-12-06T05:46:18.091Z,9.17
2022-12-06T05:48:44.821Z,9.40
2022-12-06T05:51:11.702Z,9.60
2022-12-06T05:53:38.931Z,9.20
2022-12-06T05:56:11.528Z,8.80
2022-12-06T05:58:38.770Z,9.73
2022-12-06T06:01:06.675Z,8.87
2022-12-06T06:03:34.211Z,9.80
2022-12-06T06:06:02.052Z,9.93
2022-12-06T06:08:29.648Z,10.13
2022-12-06T06:10:57.361Z,9.50
2022-12-06T06:13:24.257Z,9.40
2022-12-06T06:15:51.116Z,9.73
2022-12-06T06:18:18.772Z,9.50
2022-12-06T06:21:03.906Z,11.07
2022-12-06T06:23:30.748Z,10.47
2022-12-06T06:25:57.404Z,9.60
2022-12-06T06:28:24.193Z,10.40
2022-12-06T06:30:51.029Z,10.30
2022-12-06T06:33:17.895Z,10.73
2022-12-06T06:35:44.575Z,9.57
2022-12-06T06:38:11.196Z,9.40
2022-12-06T06:40:37.866Z,9.80
2022-12-06T06:43:20.250Z,9.67
2022-12-06T06:45:55.136Z,9.47
2022-12-06T06:48:23.207Z,9.47
2022-12-06T06:50:56.729Z,9.27
2022-12-06T06:53:25.029Z,9.50
2022-12-06T06:55:51.699Z,9.50
2022-12-06T06:58:18.375Z,9.87
2022-12-06T07:00:45.312Z,9.63
2022-12-06T07:03:16.092Z,9.50
2022-12-06T07:05:43.495Z,9.30
2022-12-06T07:08:10.814Z,8.47
2022-12-06T07:10:37.601Z,9.67
2022-12-06T07:13:04.205Z,9.07
2022-12-06T07:15:30.906Z,9.30
2022-12-06T07:17:57.583Z,9.17
2022-12-06T07:20:24.202Z,9.73
2022-12-06T07:22:50.811Z,10.43
2022-12-06T07:25:17.570Z,10.10
2022-12-06T07:27:44.255Z,8.67
2022-12-06T07:30:16.872Z,9.50
2022-12-06T07:32:44.342Z,10.37
2022-12-06T07:35:11.056Z,9.70
2022-12-06T07:37:37.684Z,9.73
2022-12-06T07:40:05.038Z,9.93
2022-12-06T07:42:50.284Z,10.40
2022-12-06T07:45:17.238Z,9.70
2022-12-06T07:47:44.912Z,10.97
2022-12-06T07:50:18.581Z,10.33
2022-12-06T07:52:46.583Z,10.40
2022-12-06T07:55:14.358Z,11.30
2022-12-06T07:57:43.665Z,10.23
2022-12-06T08:00:12.929Z,10.20
2022-12-06T08:02:39.801Z,10.73
2022-12-06T08:05:06.713Z,10.77
2022-12-06T08:07:33.469Z,10.93
2022-12-06T08:10:00.579Z,11.17
2022-12-06T08:12:33.541Z,11.77
2022-12-06T08:15:00.557Z,10.73
2022-12-06T08:17:29.111Z,11.40
2022-12-06T08:19:55.735Z,12.10
2022-12-06T08:22:22.412Z,11.47
2022-12-06T08:24:49.122Z,12.83
2022-12-06T08:27:15.884Z,12.87
2022-12-06T08:29:45.146Z,11.30
2022-12-06T08:32:12.042Z,11.43
2022-12-06T08:34:38.806Z,11.23
2022-12-06T08:37:05.435Z,12.20
2022-12-06T08:39:32.139Z,12.03
2022-12-06T08:41:58.771Z,10.90
2022-12-06T08:44:31.030Z,11.43
2022-12-06T08:46:59.897Z,11.03
2022-12-06T08:49:28.182Z,10.67
2022-12-06T08:51:55.079Z,10.87
2022-12-06T08:54:24.166Z,11.53
2022-12-06T08:56:51.915Z,11.20
2022-12-06T08:59:19.697Z,10.30
2022-12-06T09:01:47.360Z,10.83
2022-12-06T09:04:14.770Z,11.13
2022-12-06T09:06:43.889Z,10.60
2022-12-06T09:09:12.184Z,10.10
2022-12-06T09:11:40.460Z,10.53
2022-12-06T09:14:15.205Z,9.40
2022-12-06T09:16:45.255Z,10.33
2022-12-06T09:19:12.895Z,10.67
2022-12-06T09:21:42.961Z,10.67
2022-12-06T09:24:15.686Z,9.77
2022-12-06T09:26:42.991Z,9.53
2022-12-06T09:29:10.267Z,9.53
2022-12-06T09:31:39.638Z,9.63
2022-12-06T09:34:08.233Z,9.37
2022-12-06T09:36:39.102Z,10.00
2022-12-06T09:39:17.602Z,9.63
2022-12-06T09:42:11.593Z,9.67
2022-12-06T09:45:10.738Z,9.90
2022-12-06T09:47:55.928Z,9.43
2022-12-06T09:50:48.741Z,8.80
2022-12-06T09:53:39.242Z,9.00
2022-12-06T09:56:26.490Z,9.57
2022-12-06T09:59:50.616Z,8.20
2022-12-06T10:02:41.707Z,8.67
2022-12-06T10:05:54.046Z,8.63
2022-12-06T10:08:42.134Z,8.03
2022-12-06T10:11:24.993Z,8.00
2022-12-06T10:14:30.982Z,7.80
2022-12-06T10:17:09.549Z,8.43
2022-12-06T10:20:04.654Z,7.33
2022-12-06T10:22:45.569Z,7.33
2022-12-06T10:25:23.682Z,7.50
2022-12-06T10:28:11.424Z,6.13
2022-12-06T10:30:46.941Z,5.73
2022-12-06T10:33:28.593Z,6.70
2022-12-06T10:36:09.784Z,6.33
2022-12-06T10:38:46.034Z,5.83
2022-12-06T10:41:23.492Z,5.20
2022-12-06T10:43:54.602Z,4.50
2022-12-06T10:46:39.870Z,5.73
2022-12-06T10:49:32.475Z,5.07
2022-12-06T10:52:03.505Z,4.60
2022-12-06T10:54:41.057Z,4.80
2022-12-06T10:57:15.628Z,4.57
2022-12-06T10:59:59.219Z,4.23
2022-12-06T11:02:56.708Z,4.27
2022-12-06T11:05:29.663Z,4.20
2022-12-06T11:08:10.701Z,4.30
2022-12-06T11:10:39.983Z,4.10
2022-12-06T11:13:40.123Z,4.00
2022-12-06T11:16:19.936Z,4.20
2022-12-06T11:18:47.990Z,4.37
2022-12-06T11:21:48.821Z,4.30
2022-12-06T11:24:41.889Z,4.03
2022-12-06T11:27:36.391Z,4.17
2022-12-06T11:30:13.677Z,4.20
2022-12-06T11:32:45.798Z,4.27
2022-12-06T11:35:19.767Z,4.57
2022-12-06T11:37:48.435Z,4.53
2022-12-06T11:40:25.995Z,4.63
2022-12-06T11:42:53.419Z,4.10
2022-12-06T11:45:29.386Z,4.63
2022-12-06T11:47:59.352Z,4.60
2022-12-06T11:50:29.602Z,4.60
2022-12-06T11:53:02.813Z,5.73
2022-12-06T11:55:35.970Z,5.20
2022-12-06T11:58:09.222Z,4.27
2022-12-06T12:00:36.136Z,5.23
2022-12-06T12:03:02.974Z,4.20
2022-12-06T12:05:34.401Z,4.67
2022-12-06T12:08:19.625Z,4.40
2022-12-06T12:10:57.516Z,5.10
2022-12-06T12:13:42.793Z,5.00
2022-12-06T12:16:15.167Z,4.53
2022-12-06T12:19:03.772Z,4.67
2022-12-06T12:21:37.629Z,4.63
2022-12-06T12:24:05.909Z,4.03
2022-12-06T12:26:41.453Z,4.90
2022-12-06T12:29:08.026Z,4.60
2022-12-06T12:31:47.791Z,4.67
2022-12-06T12:34:22.293Z,5.10
2022-12-06T12:36:51.769Z,4.43
2022-12-06T12:39:36.255Z,3.43
2022-12-06T12:42:03.679Z,3.90
2022-12-06T12:44:39.235Z,4.03
2022-12-06T12:47:19.791Z,3.93
2022-12-06T12:50:03.855Z,4.70
2022-12-06T12:52:36.943Z,3.93
2022-12-06T12:55:12.833Z,3.70
2022-12-06T12:57:40.596Z,4.37
2022-12-06T13:00:15.611Z,4.40
2022-12-06T13:02:44.676Z,4.70
2022-12-06T13:05:32.562Z,4.50
2022-12-06T13:08:17.668Z,4.40
2022-12-06T13:10:52.924Z,4.10
2022-12-06T13:13:40.945Z,4.30
2022-12-06T13:16:14.593Z,4.77
2022-12-06T13:18:51.105Z,4.70
2022-12-06T13:21:24.230Z,4.60
2022-12-06T13:23:54.107Z,4.60
2022-12-06T13:26:31.740Z,4.00
2022-12-06T13:29:17.216Z,4.43
2022-12-06T13:31:44.732Z,4.30
2022-12-06T13:34:36.042Z,5.00
2022-12-06T13:37:04.653Z,2.87
2022-12-06T13:39:36.526Z,2.70
2022-12-06T13:42:19.669Z,2.70
2022-12-06T13:44:56.021Z,2.60
2022-12-06T13:47:28.746Z,3.27
2022-12-06T13:50:03.943Z,3.47
2022-12-06T13:52:43.077Z,3.70
2022-12-06T13:55:24.839Z,3.73
2022-12-06T13:57:57.238Z,3.93
2022-12-06T14:00:29.740Z,3.60
2022-12-06T14:03:21.588Z,3.90
2022-12-06T14:08:46.714Z,4.43
2022-12-06T14:11:18.488Z,4.30
2022-12-06T14:13:56.267Z,4.33
2022-12-06T14:16:34.225Z,4.70
2022-12-06T14:19:09.782Z,5.07
2022-12-06T14:21:39.145Z,5.10
2022-12-06T14:24:05.963Z,6.33
2022-12-06T14:26:36.017Z,6.53
2022-12-06T14:29:02.771Z,6.83
2022-12-06T14:31:35.698Z,7.77
2022-12-06T14:34:02.540Z,7.27
2022-12-06T14:36:32.160Z,7.77
2022-12-06T14:39:07.883Z,8.17
2022-12-06T14:41:57.231Z,8.33
2022-12-06T14:44:32.149Z,7.27
2022-12-06T14:46:59.381Z,8.33
2022-12-06T14:49:46.509Z,6.93
2022-12-06T14:52:18.241Z,8.13
2022-12-06T14:54:45.857Z,6.70
2022-12-06T14:57:29.502Z,8.23
2022-12-06T15:00:22.587Z,7.43
2022-12-06T15:03:12.895Z,7.73
2022-12-06T15:05:44.015Z,7.87
2022-12-06T15:08:26.080Z,7.57
2022-12-06T15:11:41.598Z,7.90
2022-12-06T15:14:22.948Z,9.63
2022-12-06T15:17:09.687Z,9.60
2022-12-06T15:19:39.242Z,7.33
2022-12-06T15:22:21.356Z,8.37
2022-12-06T15:24:54.636Z,7.33
2022-12-06T15:27:23.260Z,7.73
2022-12-06T15:29:50.278Z,8.37
2022-12-06T15:32:19.266Z,8.40
2022-12-06T15:34:46.466Z,8.57
2022-12-06T15:37:38.051Z,8.43
2022-12-06T15:40:02.148Z,7.70
2022-12-06T15:42:29.315Z,8.43
2022-12-06T15:44:55.942Z,7.53
2022-12-06T15:47:22.596Z,7.87
2022-12-06T15:49:51.911Z,7.20
2022-12-06T15:52:22.976Z,7.50
2022-12-06T15:54:50.050Z,8.27
2022-12-06T15:57:16.744Z,7.93
2022-12-06T15:59:43.364Z,9.70
2022-12-06T16:02:18.252Z,8.80
2022-12-06T16:04:47.996Z,7.33
2022-12-06T16:07:18.521Z,10.03
2022-12-06T16:09:45.691Z,7.97
2022-12-06T16:12:12.397Z,10.53
2022-12-06T16:14:39.270Z,7.10
2022-12-06T16:17:06.051Z,8.37
2022-12-06T16:19:51.512Z,7.57
2022-12-06T16:22:18.180Z,7.87
2022-12-06T16:24:48.215Z,7.70
2022-12-06T16:27:17.555Z,7.97
2022-12-06T16:29:44.223Z,7.23
2022-12-06T16:32:10.860Z,7.07
2022-12-06T16:34:37.520Z,7.20
2022-12-06T16:37:08.698Z,8.20
2022-12-06T16:39:35.633Z,7.87
2022-12-06T16:42:04.761Z,7.70
2022-12-06T16:44:31.738Z,8.00
2022-12-06T16:46:58.829Z,8.10
2022-12-06T16:52:15.345Z,7.37
2022-12-06T16:54:42.497Z,8.37
2022-12-06T16:57:11.592Z,7.33
2022-12-06T16:59:38.359Z,7.37
2022-12-06T17:02:24.022Z,8.00
2022-12-06T17:04:50.734Z,7.53
2022-12-06T17:07:17.425Z,6.10
2022-12-06T17:09:44.060Z,6.70
2022-12-06T17:12:13.167Z,6.70
2022-12-06T17:14:39.987Z,6.70
2022-12-06T17:17:06.841Z,6.73
2022-12-06T17:19:33.628Z,8.23
2022-12-06T17:22:06.430Z,8.03
2022-12-06T17:24:33.701Z,9.40
2022-12-06T17:27:00.498Z,7.13
2022-12-06T17:29:27.448Z,7.33
2022-12-06T17:31:54.547Z,6.90
2022-12-06T17:34:22.016Z,7.93
2022-12-06T17:36:49.478Z,7.37
2022-12-06T17:39:18.358Z,6.80
2022-12-06T17:42:03.710Z,7.73
2022-12-06T17:44:30.506Z,7.67
2022-12-06T17:46:57.174Z,7.43
2022-12-06T17:49:25.607Z,8.57
2022-12-06T17:51:55.363Z,7.50
2022-12-06T17:54:22.108Z,7.87
2022-12-06T17:56:50.954Z,7.17
2022-12-06T17:59:21.065Z,7.63
2022-12-06T18:02:14.055Z,7.13
2022-12-06T18:04:35.610Z,7.93
2022-12-06T18:07:02.333Z,7.00
2022-12-06T18:09:28.975Z,6.87
2022-12-06T18:11:56.121Z,6.93
2022-12-06T18:14:22.987Z,8.10
2022-12-06T18:16:49.808Z,8.53
2022-12-06T18:19:18.804Z,8.00
2022-12-06T18:21:45.944Z,6.97
2022-12-06T18:24:26.703Z,7.77
2022-12-06T18:26:56.541Z,8.13
2022-12-06T18:29:24.309Z,6.40
2022-12-06T18:31:52.001Z,7.60
2022-12-06T18:34:19.239Z,7.53
2022-12-06T18:36:46.907Z,7.33
2022-12-06T18:39:16.322Z,7.70
2022-12-06T18:41:46.329Z,7.47
2022-12-06T18:44:13.322Z,7.63
2022-12-06T18:46:42.268Z,7.73
2022-12-06T18:49:11.090Z,7.97
2022-12-06T18:51:38.763Z,7.03
2022-12-06T18:54:06.717Z,8.10
2022-12-06T18:56:34.294Z,8.10
2022-12-06T18:59:03.377Z,7.37
2022-12-06T19:01:32.737Z,7.40
2022-12-06T19:04:01.228Z,7.67
2022-12-06T19:06:32.604Z,7.00
2022-12-06T19:09:02.802Z,6.80
2022-12-06T19:11:29.565Z,6.40
2022-12-06T19:13:58.074Z,6.33
2022-12-06T19:16:36.517Z,6.43
2022-12-06T19:19:08.778Z,5.83
2022-12-06T19:21:38.192Z,6.07
2022-12-06T19:24:05.158Z,6.23
2022-12-06T19:26:31.899Z,6.53
2022-12-06T19:28:58.622Z,6.50
2022-12-06T19:31:25.339Z,6.23
2022-12-06T19:33:52.781Z,6.00
2022-12-06T19:36:30.629Z,6.40
2022-12-06T19:38:57.402Z,6.43
2022-12-06T19:41:24.212Z,6.33
2022-12-06T19:44:09.605Z,6.13
2022-12-06T19:46:36.787Z,6.10
2022-12-06T19:49:05.979Z,6.07
2022-12-06T19:51:36.808Z,6.30
2022-12-06T19:54:04.465Z,5.97
2022-12-06T19:56:31.659Z,6.00
2022-12-06T19:58:58.963Z,5.40
2022-12-06T20:01:27.217Z,5.53
2022-12-06T20:03:57.325Z,5.37
2022-12-06T20:06:27.278Z,5.27
2022-12-06T20:08:57.906Z,5.33
2022-12-06T20:12:00.405Z,5.30
2022-12-06T20:14:29.093Z,5.67
2022-12-06T20:16:55.851Z,5.50
2022-12-06T20:19:22.856Z,5.20
2022-12-06T20:21:49.909Z,5.70
2022-12-06T20:24:19.571Z,5.97
2022-12-06T20:26:49.355Z,5.70
2022-12-06T20:29:17.995Z,6.47
2022-12-06T20:31:45.129Z,5.70
2022-12-06T20:34:15.413Z,6.10
2022-12-06T20:36:42.925Z,6.10
2022-12-06T20:39:22.016Z,6.07
2022-12-06T20:41:49.553Z,5.90
2022-12-06T20:44:17.289Z,5.17
2022-12-06T20:46:44.308Z,6.23
2022-12-06T20:49:11.030Z,6.30
2022-12-06T20:51:37.758Z,6.30
2022-12-06T20:54:07.047Z,6.80
2022-12-06T20:56:36.458Z,6.23
2022-12-06T20:59:04.929Z,5.87
2022-12-06T21:01:34.789Z,6.20
2022-12-06T21:04:01.523Z,6.10
2022-12-06T21:06:28.209Z,6.03
2022-12-06T21:08:56.170Z,6.20
2022-12-06T21:11:25.039Z,6.53
2022-12-06T21:13:54.744Z,6.13
2022-12-06T21:16:27.630Z,6.47
2022-12-06T21:19:00.568Z,6.20
2022-12-06T21:21:30.092Z,6.50
2022-12-06T21:24:00.472Z,6.33
2022-12-06T21:26:28.458Z,6.30
2022-12-06T21:28:55.248Z,6.67
2022-12-06T21:31:29.195Z,6.60
2022-12-06T21:33:56.622Z,6.50
2022-12-06T21:36:23.901Z,6.30
2022-12-06T21:38:50.762Z,6.57
2022-12-06T21:41:17.527Z,6.97
2022-12-06T21:43:44.268Z,6.37
2022-12-06T21:46:16.053Z,5.47
2022-12-06T21:48:44.072Z,5.90
2022-12-06T21:51:12.335Z,6.33
2022-12-06T21:53:39.086Z,5.67
2022-12-06T21:56:13.621Z,5.57
2022-12-06T21:58:40.333Z,5.77
2022-12-06T22:01:13.080Z,5.20
2022-12-06T22:03:39.917Z,4.60
2022-12-06T22:06:12.226Z,5.40
2022-12-06T22:08:40.646Z,5.17
2022-12-06T22:11:09.712Z,5.37
2022-12-06T22:13:36.668Z,5.10
2022-12-06T22:16:05.580Z,5.43
2022-12-06T22:18:33.618Z,5.10
2022-12-06T22:21:02.215Z,5.40
2022-12-06T22:23:30.831Z,5.20
2022-12-06T22:26:04.634Z,5.20
2022-12-06T22:28:31.893Z,5.40
2022-12-06T22:31:09.490Z,5.03
2022-12-06T22:33:36.248Z,5.07
2022-12-06T22:36:03.108Z,5.13
2022-12-06T22:38:29.863Z,4.90
2022-12-06T22:41:00.457Z,5.53
2022-12-06T22:43:28.590Z,5.60
2022-12-06T22:45:55.609Z,5.53
2022-12-06T22:48:23.099Z,5.23
2022-12-06T22:50:49.806Z,4.73
2022-12-06T22:53:16.512Z,4.80
2022-12-06T22:55:43.152Z,5.57
2022-12-06T22:58:09.851Z,4.83
2022-12-06T23:00:36.490Z,5.20
2022-12-06T23:03:03.158Z,5.20
2022-12-06T23:05:29.809Z,4.67
2022-12-06T23:07:57.246Z,4.90
2022-12-06T23:10:23.980Z,5.20
2022-12-06T23:12:50.629Z,5.07
2022-12-06T23:15:17.355Z,5.57
2022-12-06T23:17:44.005Z,5.70
2022-12-06T23:20:11.098Z,5.70
2022-12-06T23:22:37.815Z,5.33
2022-12-06T23:25:05.001Z,5.53
2022-12-06T23:27:31.713Z,5.47
2022-12-06T23:29:58.571Z,5.97
2022-12-06T23:32:25.505Z,5.47
2022-12-06T23:34:52.505Z,6.33
2022-12-06T23:37:19.149Z,6.10
2022-12-06T23:39:45.783Z,5.67
2022-12-06T23:42:12.385Z,6.40
2022-12-06T23:44:40.025Z,6.70
2022-12-06T23:47:06.772Z,6.70
2022-12-06T23:49:35.661Z,6.53
2022-12-06T23:52:02.315Z,6.53
2022-12-06T23:54:28.992Z,6.13
2022-12-06T23:56:55.651Z,6.23
2022-12-06T23:59:22.344Z,6.17
